sensor_id;sensor_type;location;lat;lon;timestamp;pressure;altitude;pressure_sealevel;temperature;humidity
28027;BME280;15344;52.342;-1.290;2023-04-21T00:01:28;100517.77;;;9.86;97.68
28027;BME280;15344;52.342;-1.290;2023-04-21T00:03:53;100514.83;;;9.62;99.56
28027;BME280;15344;52.342;-1.290;2023-04-21T00:06:18;100516.04;;;10.77;94.96
28027;BME280;15344;52.342;-1.290;2023-04-21T00:08:44;100511.68;;;10.46;94.94
28027;BME280;15344;52.342;-1.290;2023-04-21T00:11:10;100509.79;;;9.11;100.00
28027;BME280;15344;52.342;-1.290;2023-04-21T00:13:35;100512.37;;;8.20;100.00
28027;BME280;15344;52.342;-1.290;2023-04-21T00:16:01;100500.36;;;9.85;100.00
28027;BME280;15344;52.342;-1.290;2023-04-21T00:18:26;100499.82;;;8.20;100.00
28027;BME280;15344;52.342;-1.290;2023-04-21T00:20:51;100491.23;;;9.40;100.00
28027;BME280;15344;52.342;-1.290;2023-04-21T00:23:17;100486.20;;;9.82;100.00
28027;BME280;15344;52.342;-1.290;2023-04-21T00:25:43;100487.65;;;8.11;100.00
28027;BME280;15344;52.342;-1.290;2023-04-21T00:28:09;100479.80;;;8.93;100.00
28027;BME280;15344;52.342;-1.290;2023-04-21T00:30:34;100477.42;;;9.96;99.36
28027;BME280;15344;52.342;-1.290;2023-04-21T00:33:00;100479.63;;;10.30;96.01
28027;BME280;15344;52.342;-1.290;2023-04-21T00:35:25;100477.96;;;9.28;100.00
28027;BME280;15344;52.342;-1.290;2023-04-21T00:37:50;100476.79;;;10.13;97.43
28027;BME280;15344;52.342;-1.290;2023-04-21T00:40:16;100476.61;;;9.95;96.83
28027;BME280;15344;52.342;-1.290;2023-04-21T00:42:42;100476.00;;;11.06;92.82
28027;BME280;15344;52.342;-1.290;2023-04-21T00:45:07;100476.94;;;10.59;92.20
28027;BME280;15344;52.342;-1.290;2023-04-21T00:47:33;100476.22;;;10.31;94.06
28027;BME280;15344;52.342;-1.290;2023-04-21T00:49:58;100475.47;;;10.60;92.09
28027;BME280;15344;52.342;-1.290;2023-04-21T00:52:25;100469.14;;;9.66;98.51
28027;BME280;15344;52.342;-1.290;2023-04-21T00:54:50;100469.43;;;10.54;93.94
28027;BME280;15344;52.342;-1.290;2023-04-21T00:57:15;100466.08;;;10.89;89.34
28027;BME280;15344;52.342;-1.290;2023-04-21T00:59:41;100463.86;;;11.11;87.31
28027;BME280;15344;52.342;-1.290;2023-04-21T01:02:06;100461.40;;;10.83;89.95
28027;BME280;15344;52.342;-1.290;2023-04-21T01:04:31;100456.87;;;11.08;88.09
28027;BME280;15344;52.342;-1.290;2023-04-21T01:06:58;100460.12;;;10.17;93.30
28027;BME280;15344;52.342;-1.290;2023-04-21T01:09:22;100458.11;;;11.17;86.36
28027;BME280;15344;52.342;-1.290;2023-04-21T01:14:14;100452.76;;;11.55;86.13
28027;BME280;15344;52.342;-1.290;2023-04-21T01:16:39;100454.42;;;10.33;91.26
28027;BME280;15344;52.342;-1.290;2023-04-21T01:19:05;100453.29;;;10.81;91.04
28027;BME280;15344;52.342;-1.290;2023-04-21T01:21:38;100454.41;;;10.29;94.28
28027;BME280;15344;52.342;-1.290;2023-04-21T01:23:56;100444.41;;;10.24;92.99
28027;BME280;15344;52.342;-1.290;2023-04-21T01:26:21;100442.41;;;10.94;88.00
28027;BME280;15344;52.342;-1.290;2023-04-21T01:28:47;100436.29;;;10.60;87.53
28027;BME280;15344;52.342;-1.290;2023-04-21T01:31:12;100437.75;;;10.57;91.84
28027;BME280;15344;52.342;-1.290;2023-04-21T01:33:37;100431.02;;;10.93;89.35
28027;BME280;15344;52.342;-1.290;2023-04-21T01:36:03;100429.83;;;11.01;87.38
28027;BME280;15344;52.342;-1.290;2023-04-21T01:38:28;100424.29;;;11.21;84.81
28027;BME280;15344;52.342;-1.290;2023-04-21T01:40:54;100418.90;;;11.15;87.34
28027;BME280;15344;52.342;-1.290;2023-04-21T01:43:20;100410.89;;;11.18;84.45
28027;BME280;15344;52.342;-1.290;2023-04-21T01:45:43;100408.45;;;10.99;85.05
28027;BME280;15344;52.342;-1.290;2023-04-21T01:48:09;100408.92;;;10.80;85.07
28027;BME280;15344;52.342;-1.290;2023-04-21T01:50:34;100396.53;;;11.89;81.47
28027;BME280;15344;52.342;-1.290;2023-04-21T01:52:59;100399.81;;;10.85;82.01
28027;BME280;15344;52.342;-1.290;2023-04-21T01:55:24;100399.58;;;11.75;80.94
28027;BME280;15344;52.342;-1.290;2023-04-21T01:57:50;100393.32;;;11.96;80.34
28027;BME280;15344;52.342;-1.290;2023-04-21T02:00:15;100397.65;;;10.92;83.21
28027;BME280;15344;52.342;-1.290;2023-04-21T02:02:40;100396.02;;;12.09;79.45
28027;BME280;15344;52.342;-1.290;2023-04-21T02:05:06;100397.17;;;11.24;81.81
28027;BME280;15344;52.342;-1.290;2023-04-21T02:07:30;100396.21;;;11.64;79.56
28027;BME280;15344;52.342;-1.290;2023-04-21T02:09:56;100400.33;;;11.58;80.76
28027;BME280;15344;52.342;-1.290;2023-04-21T02:12:21;100400.90;;;11.38;82.65
28027;BME280;15344;52.342;-1.290;2023-04-21T02:14:47;100395.76;;;11.13;83.15
28027;BME280;15344;52.342;-1.290;2023-04-21T02:17:12;100393.99;;;10.44;87.62
28027;BME280;15344;52.342;-1.290;2023-04-21T02:19:37;100382.22;;;11.30;84.62
28027;BME280;15344;52.342;-1.290;2023-04-21T02:22:02;100385.70;;;9.92;91.92
28027;BME280;15344;52.342;-1.290;2023-04-21T02:24:28;100378.04;;;10.58;90.12
28027;BME280;15344;52.342;-1.290;2023-04-21T02:26:53;100373.27;;;10.92;86.16
28027;BME280;15344;52.342;-1.290;2023-04-21T02:29:18;100373.44;;;9.78;93.24
28027;BME280;15344;52.342;-1.290;2023-04-21T02:31:44;100366.09;;;10.35;91.28
28027;BME280;15344;52.342;-1.290;2023-04-21T02:34:09;100367.75;;;10.28;91.72
28027;BME280;15344;52.342;-1.290;2023-04-21T02:36:35;100362.05;;;11.07;86.48
28027;BME280;15344;52.342;-1.290;2023-04-21T02:39:00;100357.83;;;10.29;90.15
28027;BME280;15344;52.342;-1.290;2023-04-21T02:41:25;100355.94;;;8.67;100.00
28027;BME280;15344;52.342;-1.290;2023-04-21T02:43:51;100351.66;;;9.29;98.66
28027;BME280;15344;52.342;-1.290;2023-04-21T02:46:16;100347.41;;;9.98;94.25
28027;BME280;15344;52.342;-1.290;2023-04-21T02:48:41;100349.50;;;10.20;92.69
28027;BME280;15344;52.342;-1.290;2023-04-21T02:51:11;100343.75;;;10.46;92.75
28027;BME280;15344;52.342;-1.290;2023-04-21T02:53:33;100332.82;;;10.99;88.48
28027;BME280;15344;52.342;-1.290;2023-04-21T02:55:58;100329.25;;;10.81;88.31
28027;BME280;15344;52.342;-1.290;2023-04-21T02:58:23;100329.59;;;9.49;98.52
28027;BME280;15344;52.342;-1.290;2023-04-21T03:00:54;100321.38;;;10.18;95.44
28027;BME280;15344;52.342;-1.290;2023-04-21T03:03:15;100316.80;;;11.09;89.29
28027;BME280;15344;52.342;-1.290;2023-04-21T03:05:40;100323.60;;;10.39;92.87
28027;BME280;15344;52.342;-1.290;2023-04-21T03:08:05;100317.52;;;11.20;90.07
28027;BME280;15344;52.342;-1.290;2023-04-21T03:10:31;100312.71;;;9.82;93.79
28027;BME280;15344;52.342;-1.290;2023-04-21T03:12:57;100314.27;;;9.60;96.63
28027;BME280;15344;52.342;-1.290;2023-04-21T03:15:22;100320.71;;;8.99;99.36
28027;BME280;15344;52.342;-1.290;2023-04-21T03:17:47;100324.26;;;7.88;100.00
28027;BME280;15344;52.342;-1.290;2023-04-21T03:20:12;100324.38;;;9.06;100.00
28027;BME280;15344;52.342;-1.290;2023-04-21T03:22:39;100318.62;;;9.12;100.00
28027;BME280;15344;52.342;-1.290;2023-04-21T03:25:04;100311.39;;;8.74;100.00
28027;BME280;15344;52.342;-1.290;2023-04-21T03:27:28;100311.49;;;9.21;100.00
28027;BME280;15344;52.342;-1.290;2023-04-21T03:29:54;100311.02;;;8.96;100.00
28027;BME280;15344;52.342;-1.290;2023-04-21T03:32:20;100304.02;;;9.28;100.00
28027;BME280;15344;52.342;-1.290;2023-04-21T03:34:45;100307.18;;;9.07;100.00
28027;BME280;15344;52.342;-1.290;2023-04-21T03:37:11;100305.34;;;9.60;100.00
28027;BME280;15344;52.342;-1.290;2023-04-21T03:39:36;100297.39;;;9.74;100.00
28027;BME280;15344;52.342;-1.290;2023-04-21T03:42:02;100286.11;;;10.11;98.63
28027;BME280;15344;52.342;-1.290;2023-04-21T03:44:27;100275.80;;;10.36;97.31
28027;BME280;15344;52.342;-1.290;2023-04-21T03:46:52;100271.74;;;10.06;98.91
28027;BME280;15344;52.342;-1.290;2023-04-21T03:49:18;100264.85;;;9.47;100.00
28027;BME280;15344;52.342;-1.290;2023-04-21T03:51:43;100255.25;;;9.74;100.00
28027;BME280;15344;52.342;-1.290;2023-04-21T03:54:09;100246.56;;;9.60;100.00
28027;BME280;15344;52.342;-1.290;2023-04-21T03:56:35;100239.03;;;10.14;99.88
28027;BME280;15344;52.342;-1.290;2023-04-21T03:59:00;100239.05;;;10.14;99.20
28027;BME280;15344;52.342;-1.290;2023-04-21T04:01:26;100232.58;;;10.49;98.66
28027;BME280;15344;52.342;-1.290;2023-04-21T04:03:51;100222.01;;;10.46;95.91
28027;BME280;15344;52.342;-1.290;2023-04-21T04:06:16;100208.81;;;10.94;96.56
28027;BME280;15344;52.342;-1.290;2023-04-21T04:08:42;100201.38;;;9.40;100.00
28027;BME280;15344;52.342;-1.290;2023-04-21T04:11:07;100200.04;;;9.78;99.70
28027;BME280;15344;52.342;-1.290;2023-04-21T04:13:33;100191.31;;;9.84;100.00
28027;BME280;15344;52.342;-1.290;2023-04-21T04:15:58;100187.85;;;10.20;96.18
28027;BME280;15344;52.342;-1.290;2023-04-21T04:18:24;100193.02;;;11.04;93.92
28027;BME280;15344;52.342;-1.290;2023-04-21T04:20:50;100187.14;;;10.48;96.15
28027;BME280;15344;52.342;-1.290;2023-04-21T04:23:15;100180.58;;;11.46;95.29
28027;BME280;15344;52.342;-1.290;2023-04-21T04:25:41;100181.66;;;10.03;98.02
28027;BME280;15344;52.342;-1.290;2023-04-21T04:28:06;100183.30;;;10.99;97.15
28027;BME280;15344;52.342;-1.290;2023-04-21T04:30:31;100180.52;;;10.18;99.02
28027;BME280;15344;52.342;-1.290;2023-04-21T04:32:58;100174.80;;;11.40;95.50
28027;BME280;15344;52.342;-1.290;2023-04-21T04:35:22;100168.30;;;10.57;99.12
28027;BME280;15344;52.342;-1.290;2023-04-21T04:37:48;100158.04;;;9.45;100.00
28027;BME280;15344;52.342;-1.290;2023-04-21T04:40:13;100164.04;;;10.77;100.00
28027;BME280;15344;52.342;-1.290;2023-04-21T04:42:38;100164.59;;;10.44;100.00
28027;BME280;15344;52.342;-1.290;2023-04-21T04:45:05;100165.33;;;9.63;100.00
28027;BME280;15344;52.342;-1.290;2023-04-21T04:47:29;100163.45;;;10.81;100.00
28027;BME280;15344;52.342;-1.290;2023-04-21T04:49:54;100162.01;;;10.90;100.00
28027;BME280;15344;52.342;-1.290;2023-04-21T04:52:20;100154.46;;;10.24;100.00
28027;BME280;15344;52.342;-1.290;2023-04-21T04:54:46;100150.79;;;10.94;100.00
28027;BME280;15344;52.342;-1.290;2023-04-21T04:57:12;100155.39;;;10.48;100.00
28027;BME280;15344;52.342;-1.290;2023-04-21T04:59:37;100158.59;;;10.36;100.00
28027;BME280;15344;52.342;-1.290;2023-04-21T05:02:02;100154.58;;;10.64;100.00
28027;BME280;15344;52.342;-1.290;2023-04-21T05:04:28;100148.47;;;10.48;100.00
28027;BME280;15344;52.342;-1.290;2023-04-21T05:06:53;100153.95;;;10.01;100.00
28027;BME280;15344;52.342;-1.290;2023-04-21T05:09:19;100159.35;;;10.31;100.00
28027;BME280;15344;52.342;-1.290;2023-04-21T05:11:44;100159.50;;;10.77;100.00
28027;BME280;15344;52.342;-1.290;2023-04-21T05:14:09;100150.30;;;9.93;100.00
28027;BME280;15344;52.342;-1.290;2023-04-21T05:16:35;100146.78;;;10.87;100.00
28027;BME280;15344;52.342;-1.290;2023-04-21T05:19:00;100143.04;;;10.97;100.00
28027;BME280;15344;52.342;-1.290;2023-04-21T05:21:25;100140.99;;;11.39;100.00
28027;BME280;15344;52.342;-1.290;2023-04-21T05:23:50;100137.86;;;11.14;100.00
28027;BME280;15344;52.342;-1.290;2023-04-21T05:26:15;100134.34;;;11.59;98.97
28027;BME280;15344;52.342;-1.290;2023-04-21T05:28:41;100134.92;;;11.14;100.00
28027;BME280;15344;52.342;-1.290;2023-04-21T05:31:06;100133.01;;;9.40;100.00
28027;BME280;15344;52.342;-1.290;2023-04-21T05:33:32;100135.36;;;11.07;100.00
28027;BME280;15344;52.342;-1.290;2023-04-21T05:35:58;100135.04;;;11.05;100.00
28027;BME280;15344;52.342;-1.290;2023-04-21T05:38:22;100135.97;;;10.72;100.00
28027;BME280;15344;52.342;-1.290;2023-04-21T05:40:53;100139.79;;;11.31;100.00
28027;BME280;15344;52.342;-1.290;2023-04-21T05:43:14;100141.29;;;10.56;100.00
28027;BME280;15344;52.342;-1.290;2023-04-21T05:45:39;100135.36;;;11.39;100.00
28027;BME280;15344;52.342;-1.290;2023-04-21T05:48:05;100134.90;;;10.64;100.00
28027;BME280;15344;52.342;-1.290;2023-04-21T05:50:30;100135.11;;;10.78;100.00
28027;BME280;15344;52.342;-1.290;2023-04-21T05:52:55;100133.44;;;10.90;100.00
28027;BME280;15344;52.342;-1.290;2023-04-21T05:55:21;100130.81;;;11.24;100.00
28027;BME280;15344;52.342;-1.290;2023-04-21T05:57:47;100129.03;;;9.55;100.00
28027;BME280;15344;52.342;-1.290;2023-04-21T06:00:14;100122.94;;;10.28;100.00
28027;BME280;15344;52.342;-1.290;2023-04-21T06:02:38;100116.79;;;10.60;100.00
28027;BME280;15344;52.342;-1.290;2023-04-21T06:05:04;100110.45;;;11.00;100.00
28027;BME280;15344;52.342;-1.290;2023-04-21T06:07:29;100102.74;;;10.46;100.00
28027;BME280;15344;52.342;-1.290;2023-04-21T06:09:54;100097.79;;;10.50;100.00
28027;BME280;15344;52.342;-1.290;2023-04-21T06:12:19;100094.39;;;10.98;97.87
28027;BME280;15344;52.342;-1.290;2023-04-21T06:14:45;100091.32;;;11.20;98.17
28027;BME280;15344;52.342;-1.290;2023-04-21T06:17:14;100084.06;;;11.76;95.43
28027;BME280;15344;52.342;-1.290;2023-04-21T06:19:36;100076.42;;;11.52;95.95
28027;BME280;15344;52.342;-1.290;2023-04-21T06:22:01;100072.36;;;12.25;94.81
28027;BME280;15344;52.342;-1.290;2023-04-21T06:24:31;100073.08;;;12.13;93.00
28027;BME280;15344;52.342;-1.290;2023-04-21T06:26:52;100065.16;;;11.76;93.35
28027;BME280;15344;52.342;-1.290;2023-04-21T06:29:17;100058.14;;;12.81;91.67
28027;BME280;15344;52.342;-1.290;2023-04-21T06:31:43;100043.95;;;12.74;90.72
28027;BME280;15344;52.342;-1.290;2023-04-21T06:34:08;100030.79;;;13.05;90.64
28027;BME280;15344;52.342;-1.290;2023-04-21T06:36:33;100026.13;;;12.70;91.12
28027;BME280;15344;52.342;-1.290;2023-04-21T06:38:59;100021.68;;;12.87;89.63
28027;BME280;15344;52.342;-1.290;2023-04-21T06:41:24;100021.68;;;13.15;89.65
28027;BME280;15344;52.342;-1.290;2023-04-21T06:43:49;100015.60;;;12.96;89.05
28027;BME280;15344;52.342;-1.290;2023-04-21T06:46:15;100001.90;;;12.83;89.21
28027;BME280;15344;52.342;-1.290;2023-04-21T06:48:40;99998.76;;;12.97;88.36
28027;BME280;15344;52.342;-1.290;2023-04-21T06:51:06;99990.07;;;12.06;89.92
28027;BME280;15344;52.342;-1.290;2023-04-21T06:53:32;99981.29;;;12.70;87.88
28027;BME280;15344;52.342;-1.290;2023-04-21T06:55:57;99974.43;;;12.04;87.58
28027;BME280;15344;52.342;-1.290;2023-04-21T06:58:22;99973.64;;;12.78;86.44
28027;BME280;15344;52.342;-1.290;2023-04-21T07:00:48;99972.82;;;12.60;87.30
28027;BME280;15344;52.342;-1.290;2023-04-21T07:03:13;99976.70;;;12.49;88.36
28027;BME280;15344;52.342;-1.290;2023-04-21T07:05:38;99981.06;;;13.25;85.66
28027;BME280;15344;52.342;-1.290;2023-04-21T07:08:04;99978.14;;;13.03;86.47
28027;BME280;15344;52.342;-1.290;2023-04-21T07:10:30;99982.45;;;12.78;86.20
28027;BME280;15344;52.342;-1.290;2023-04-21T07:12:55;99985.97;;;13.23;86.03
28027;BME280;15344;52.342;-1.290;2023-04-21T07:15:21;99980.93;;;12.42;89.47
28027;BME280;15344;52.342;-1.290;2023-04-21T07:17:47;99970.13;;;12.89;87.94
28027;BME280;15344;52.342;-1.290;2023-04-21T07:20:12;99961.09;;;12.76;88.12
28027;BME280;15344;52.342;-1.290;2023-04-21T07:22:38;99956.39;;;13.18;87.16
28027;BME280;15344;52.342;-1.290;2023-04-21T07:25:05;99958.64;;;13.25;86.73
28027;BME280;15344;52.342;-1.290;2023-04-21T07:27:29;99956.07;;;12.72;87.29
28027;BME280;15344;52.342;-1.290;2023-04-21T07:29:55;99960.26;;;13.20;86.92
28027;BME280;15344;52.342;-1.290;2023-04-21T07:32:21;99957.18;;;12.37;88.39
28027;BME280;15344;52.342;-1.290;2023-04-21T07:34:46;99956.54;;;13.13;85.73
28027;BME280;15344;52.342;-1.290;2023-04-21T07:37:11;99954.60;;;13.09;85.65
28027;BME280;15344;52.342;-1.290;2023-04-21T07:39:36;99958.15;;;12.91;84.98
28027;BME280;15344;52.342;-1.290;2023-04-21T07:42:02;99961.39;;;13.10;84.64
28027;BME280;15344;52.342;-1.290;2023-04-21T07:44:27;99963.18;;;13.53;83.02
28027;BME280;15344;52.342;-1.290;2023-04-21T07:46:52;99960.87;;;13.51;83.72
28027;BME280;15344;52.342;-1.290;2023-04-21T07:49:17;99957.13;;;13.87;82.22
28027;BME280;15344;52.342;-1.290;2023-04-21T07:51:43;99959.04;;;13.12;85.31
28027;BME280;15344;52.342;-1.290;2023-04-21T07:54:08;99956.31;;;13.49;83.43
28027;BME280;15344;52.342;-1.290;2023-04-21T07:56:34;99955.26;;;13.23;83.46
28027;BME280;15344;52.342;-1.290;2023-04-21T07:59:00;99951.71;;;13.34;83.71
28027;BME280;15344;52.342;-1.290;2023-04-21T08:01:25;99942.24;;;13.89;84.01
28027;BME280;15344;52.342;-1.290;2023-04-21T08:03:51;99941.01;;;13.33;85.01
28027;BME280;15344;52.342;-1.290;2023-04-21T08:06:17;99941.09;;;13.41;85.04
28027;BME280;15344;52.342;-1.290;2023-04-21T08:08:42;99936.28;;;12.98;85.48
28027;BME280;15344;52.342;-1.290;2023-04-21T08:11:07;99931.05;;;12.59;88.02
28027;BME280;15344;52.342;-1.290;2023-04-21T08:13:32;99927.01;;;12.60;87.38
28027;BME280;15344;52.342;-1.290;2023-04-21T08:15:58;99926.39;;;12.74;85.94
28027;BME280;15344;52.342;-1.290;2023-04-21T08:18:22;99926.39;;;13.11;84.61
28027;BME280;15344;52.342;-1.290;2023-04-21T08:20:48;99924.79;;;12.78;86.75
28027;BME280;15344;52.342;-1.290;2023-04-21T08:23:13;99917.28;;;13.41;85.97
28027;BME280;15344;52.342;-1.290;2023-04-21T08:25:38;99915.94;;;12.93;87.03
28027;BME280;15344;52.342;-1.290;2023-04-21T08:28:04;99910.01;;;12.38;89.47
28027;BME280;15344;52.342;-1.290;2023-04-21T08:30:29;99909.64;;;12.85;87.09
28027;BME280;15344;52.342;-1.290;2023-04-21T08:32:54;99911.98;;;12.56;87.36
28027;BME280;15344;52.342;-1.290;2023-04-21T08:35:19;99909.07;;;13.09;84.78
28027;BME280;15344;52.342;-1.290;2023-04-21T08:37:45;99903.85;;;12.88;85.21
28027;BME280;15344;52.342;-1.290;2023-04-21T08:40:10;99907.65;;;12.58;85.81
28027;BME280;15344;52.342;-1.290;2023-04-21T08:42:36;99908.72;;;11.71;86.88
28027;BME280;15344;52.342;-1.290;2023-04-21T08:45:01;99903.24;;;12.44;86.38
28027;BME280;15344;52.342;-1.290;2023-04-21T08:47:28;99894.54;;;12.83;84.75
28027;BME280;15344;52.342;-1.290;2023-04-21T08:49:51;99903.41;;;12.85;85.56
28027;BME280;15344;52.342;-1.290;2023-04-21T08:52:17;99905.27;;;13.16;84.63
28027;BME280;15344;52.342;-1.290;2023-04-21T08:54:42;99897.91;;;13.52;84.69
28027;BME280;15344;52.342;-1.290;2023-04-21T08:57:07;99894.17;;;13.33;85.49
28027;BME280;15344;52.342;-1.290;2023-04-21T08:59:33;99901.17;;;13.62;84.65
28027;BME280;15344;52.342;-1.290;2023-04-21T09:02:06;99900.49;;;12.98;87.74
28027;BME280;15344;52.342;-1.290;2023-04-21T09:04:23;99898.35;;;12.66;85.97
28027;BME280;15344;52.342;-1.290;2023-04-21T09:06:48;99901.18;;;12.67;87.59
28027;BME280;15344;52.342;-1.290;2023-04-21T09:09:14;99895.65;;;12.62;87.50
28027;BME280;15344;52.342;-1.290;2023-04-21T09:11:40;99893.34;;;13.32;84.68
28027;BME280;15344;52.342;-1.290;2023-04-21T09:14:05;99892.36;;;13.21;84.61
28027;BME280;15344;52.342;-1.290;2023-04-21T09:16:31;99892.42;;;12.23;88.32
28027;BME280;15344;52.342;-1.290;2023-04-21T09:18:56;99887.10;;;12.64;86.09
28027;BME280;15344;52.342;-1.290;2023-04-21T09:21:27;99886.33;;;13.42;85.77
28027;BME280;15344;52.342;-1.290;2023-04-21T09:23:48;99879.08;;;13.60;85.26
28027;BME280;15344;52.342;-1.290;2023-04-21T09:26:13;99880.05;;;13.60;85.49
28027;BME280;15344;52.342;-1.290;2023-04-21T09:28:40;99878.52;;;12.39;96.70
28027;BME280;15344;52.342;-1.290;2023-04-21T09:31:03;99873.67;;;12.01;98.98
28027;BME280;15344;52.342;-1.290;2023-04-21T09:33:32;99871.76;;;13.58;94.60
28027;BME280;15344;52.342;-1.290;2023-04-21T09:35:53;99873.97;;;12.91;96.21
28027;BME280;15344;52.342;-1.290;2023-04-21T09:38:21;99877.01;;;13.47;94.58
28027;BME280;15344;52.342;-1.290;2023-04-21T09:40:43;99877.21;;;13.49;90.88
28027;BME280;15344;52.342;-1.290;2023-04-21T09:43:09;99880.30;;;13.43;93.63
28027;BME280;15344;52.342;-1.290;2023-04-21T09:45:35;99873.19;;;13.77;92.64
28027;BME280;15344;52.342;-1.290;2023-04-21T09:48:00;99874.00;;;12.79;96.10
28027;BME280;15344;52.342;-1.290;2023-04-21T09:50:26;99880.81;;;13.46;97.90
28027;BME280;15344;52.342;-1.290;2023-04-21T09:52:52;99876.22;;;13.24;98.22
28027;BME280;15344;52.342;-1.290;2023-04-21T09:55:18;99871.29;;;13.56;94.61
28027;BME280;15344;52.342;-1.290;2023-04-21T09:57:42;99874.47;;;13.15;97.24
28027;BME280;15344;52.342;-1.290;2023-04-21T10:00:10;99875.52;;;13.03;95.10
28027;BME280;15344;52.342;-1.290;2023-04-21T10:02:34;99881.70;;;11.85;100.00
28027;BME280;15344;52.342;-1.290;2023-04-21T10:04:58;99888.23;;;10.80;100.00
28027;BME280;15344;52.342;-1.290;2023-04-21T10:07:23;99895.67;;;10.82;100.00
28027;BME280;15344;52.342;-1.290;2023-04-21T10:09:51;99884.86;;;9.91;100.00
28027;BME280;15344;52.342;-1.290;2023-04-21T10:12:14;99881.79;;;11.77;100.00
28027;BME280;15344;52.342;-1.290;2023-04-21T10:14:40;99881.82;;;10.80;100.00
28027;BME280;15344;52.342;-1.290;2023-04-21T10:17:07;99880.79;;;11.68;100.00
28027;BME280;15344;52.342;-1.290;2023-04-21T10:19:30;99881.28;;;11.00;100.00
28027;BME280;15344;52.342;-1.290;2023-04-21T10:21:56;99884.07;;;11.24;100.00
28027;BME280;15344;52.342;-1.290;2023-04-21T10:24:21;99880.01;;;10.95;100.00
28027;BME280;15344;52.342;-1.290;2023-04-21T10:26:49;99874.47;;;9.89;100.00
28027;BME280;15344;52.342;-1.290;2023-04-21T10:29:12;99879.47;;;11.31;100.00
28027;BME280;15344;52.342;-1.290;2023-04-21T10:34:12;99867.79;;;10.02;100.00
28027;BME280;15344;52.342;-1.290;2023-04-21T10:36:28;99860.69;;;10.52;100.00
28027;BME280;15344;52.342;-1.290;2023-04-21T10:38:54;99853.19;;;10.31;100.00
28027;BME280;15344;52.342;-1.290;2023-04-21T10:41:25;99849.15;;;9.91;100.00
28027;BME280;15344;52.342;-1.290;2023-04-21T10:43:45;99852.74;;;11.09;100.00
28027;BME280;15344;52.342;-1.290;2023-04-21T10:48:36;99844.16;;;11.23;100.00
28027;BME280;15344;52.342;-1.290;2023-04-21T10:51:03;99839.63;;;11.25;100.00
28027;BME280;15344;52.342;-1.290;2023-04-21T10:53:26;99840.66;;;11.67;100.00
28027;BME280;15344;52.342;-1.290;2023-04-21T10:55:52;99837.88;;;12.83;100.00
28027;BME280;15344;52.342;-1.290;2023-04-21T10:58:17;99839.44;;;12.53;100.00
28027;BME280;15344;52.342;-1.290;2023-04-21T11:00:42;99833.59;;;12.03;100.00
28027;BME280;15344;52.342;-1.290;2023-04-21T11:03:07;99825.29;;;13.04;100.00
28027;BME280;15344;52.342;-1.290;2023-04-21T11:05:35;99830.97;;;12.44;100.00
28027;BME280;15344;52.342;-1.290;2023-04-21T11:08:03;99831.04;;;11.62;100.00
28027;BME280;15344;52.342;-1.290;2023-04-21T11:10:23;99832.63;;;11.58;100.00
28027;BME280;15344;52.342;-1.290;2023-04-21T11:12:48;99827.54;;;11.40;100.00
28027;BME280;15344;52.342;-1.290;2023-04-21T11:15:14;99827.50;;;11.96;100.00
28027;BME280;15344;52.342;-1.290;2023-04-21T11:17:39;99824.54;;;12.22;100.00
28027;BME280;15344;52.342;-1.290;2023-04-21T11:20:06;99823.26;;;11.71;100.00
28027;BME280;15344;52.342;-1.290;2023-04-21T11:22:30;99824.44;;;11.27;100.00
28027;BME280;15344;52.342;-1.290;2023-04-21T11:24:56;99825.45;;;10.27;100.00
28027;BME280;15344;52.342;-1.290;2023-04-21T11:27:21;99819.33;;;11.85;100.00
28027;BME280;15344;52.342;-1.290;2023-04-21T11:29:46;99812.68;;;11.68;100.00
28027;BME280;15344;52.342;-1.290;2023-04-21T11:32:12;99815.98;;;11.69;100.00
28027;BME280;15344;52.342;-1.290;2023-04-21T11:34:37;99815.15;;;11.99;100.00
28027;BME280;15344;52.342;-1.290;2023-04-21T11:37:02;99822.84;;;10.96;100.00
28027;BME280;15344;52.342;-1.290;2023-04-21T11:39:27;99815.41;;;12.36;100.00
28027;BME280;15344;52.342;-1.290;2023-04-21T11:41:52;99818.29;;;11.69;100.00
28027;BME280;15344;52.342;-1.290;2023-04-21T11:46:44;99819.87;;;11.95;100.00
28027;BME280;15344;52.342;-1.290;2023-04-21T11:49:13;99825.95;;;11.32;100.00
28027;BME280;15344;52.342;-1.290;2023-04-21T11:51:34;99827.22;;;11.13;100.00
28027;BME280;15344;52.342;-1.290;2023-04-21T11:53:59;99829.35;;;11.31;100.00
28027;BME280;15344;52.342;-1.290;2023-04-21T11:56:23;99826.88;;;11.28;100.00
28027;BME280;15344;52.342;-1.290;2023-04-21T11:58:49;99822.88;;;11.63;100.00
28027;BME280;15344;52.342;-1.290;2023-04-21T12:01:15;99823.13;;;12.26;100.00
28027;BME280;15344;52.342;-1.290;2023-04-21T12:03:39;99820.56;;;11.69;100.00
28027;BME280;15344;52.342;-1.290;2023-04-21T12:06:04;99820.43;;;12.18;100.00
28027;BME280;15344;52.342;-1.290;2023-04-21T12:08:30;99819.60;;;11.86;97.75
28027;BME280;15344;52.342;-1.290;2023-04-21T12:10:55;99824.44;;;12.02;96.67
28027;BME280;15344;52.342;-1.290;2023-04-21T12:13:22;99827.23;;;12.50;93.08
28027;BME280;15344;52.342;-1.290;2023-04-21T12:15:46;99828.64;;;11.34;98.07
28027;BME280;15344;52.342;-1.290;2023-04-21T12:18:12;99834.86;;;10.57;100.00
28027;BME280;15344;52.342;-1.290;2023-04-21T12:20:37;99834.23;;;10.74;100.00
28027;BME280;15344;52.342;-1.290;2023-04-21T12:23:02;99833.06;;;11.25;100.00
28027;BME280;15344;52.342;-1.290;2023-04-21T12:25:28;99826.68;;;10.64;100.00
28027;BME280;15344;52.342;-1.290;2023-04-21T12:27:57;99829.01;;;11.49;100.00
28027;BME280;15344;52.342;-1.290;2023-04-21T12:30:19;99826.05;;;11.60;100.00
28027;BME280;15344;52.342;-1.290;2023-04-21T12:32:44;99827.92;;;11.46;99.51
28027;BME280;15344;52.342;-1.290;2023-04-21T12:35:09;99830.90;;;11.60;100.00
28027;BME280;15344;52.342;-1.290;2023-04-21T12:37:35;99821.23;;;12.04;98.17
28027;BME280;15344;52.342;-1.290;2023-04-21T12:40:00;99823.40;;;11.71;95.73
28027;BME280;15344;52.342;-1.290;2023-04-21T12:42:25;99821.08;;;12.06;95.93